createdAt,value
2022-11-16T00:03:08.410Z,6.92
2022-11-16T00:08:11.142Z,7.00
2022-11-16T00:13:13.891Z,7.02
2022-11-16T00:18:17.979Z,6.97
2022-11-16T00:23:20.962Z,6.96
2022-11-16T00:28:23.679Z,6.94
2022-11-16T00:33:28.161Z,6.97
2022-11-16T00:38:31.196Z,6.95
2022-11-16T00:43:34.403Z,6.85
2022-11-16T00:48:38.491Z,6.82
2022-11-16T00:53:41.301Z,6.83
2022-11-16T00:58:44.038Z,6.80
2022-11-16T01:03:48.354Z,6.77
2022-11-16T01:08:51.532Z,6.76
2022-11-16T01:13:56.659Z,6.74
2022-11-16T01:19:01.081Z,6.71
2022-11-16T01:24:03.801Z,6.72
2022-11-16T01:29:06.545Z,6.71
2022-11-16T01:34:10.914Z,6.67
2022-11-16T01:39:14.549Z,6.64
2022-11-16T01:44:50.401Z,6.62
2022-11-16T01:49:58.543Z,6.61
2022-11-16T01:55:02.314Z,6.54
2022-11-16T02:00:08.831Z,6.45
2022-11-16T02:05:16.630Z,6.38
2022-11-16T02:10:34.814Z,6.38
2022-11-16T02:15:41.450Z,6.36
2022-11-16T02:20:57.459Z,6.52
2022-11-16T02:26:16.761Z,6.28
2022-11-16T02:31:25.694Z,6.30
2022-11-16T02:36:28.501Z,6.37
2022-11-16T02:41:35.916Z,6.31
2022-11-16T02:46:43.831Z,6.32
2022-11-16T02:51:48.687Z,6.28
2022-11-16T02:56:56.232Z,6.27
2022-11-16T03:02:06.156Z,6.21
2022-11-16T03:07:11.849Z,6.29
2022-11-16T03:12:19.546Z,6.16
2022-11-16T03:17:29.379Z,6.15
2022-11-16T03:22:36.126Z,6.19
2022-11-16T03:27:43.410Z,6.24
2022-11-16T03:32:55.836Z,6.22
2022-11-16T03:38:01.327Z,6.28
2022-11-16T03:43:07.728Z,6.26
2022-11-16T03:48:13.098Z,6.36
2022-11-16T03:53:15.861Z,6.37
2022-11-16T03:58:19.032Z,6.32
2022-11-16T04:03:23.224Z,6.30
2022-11-16T04:08:43.759Z,6.47
2022-11-16T04:14:08.949Z,6.38
2022-11-16T04:19:31.013Z,6.51
2022-11-16T04:24:38.011Z,6.47
2022-11-16T04:29:41.941Z,6.53
2022-11-16T04:35:03.799Z,6.56
2022-11-16T04:40:07.777Z,6.59
2022-11-16T04:45:28.525Z,6.64
2022-11-16T04:50:32.811Z,6.62
2022-11-16T04:55:35.977Z,6.55
2022-11-16T05:00:38.699Z,6.69
2022-11-16T05:05:42.840Z,6.54
2022-11-16T05:10:45.594Z,6.60
2022-11-16T05:15:48.432Z,6.59
2022-11-16T05:21:01.746Z,6.57
2022-11-16T05:26:04.503Z,6.54
2022-11-16T05:31:07.386Z,6.60
2022-11-16T05:36:11.738Z,6.65
2022-11-16T05:41:14.459Z,6.70
2022-11-16T05:46:17.862Z,6.63
2022-11-16T05:51:22.155Z,6.84
2022-11-16T05:56:24.919Z,6.72
2022-11-16T06:01:28.051Z,6.83
2022-11-16T06:06:32.209Z,6.80
2022-11-16T06:11:36.539Z,6.88
2022-11-16T06:16:39.292Z,6.83
2022-11-16T06:21:43.437Z,6.88
2022-11-16T06:26:47.158Z,7.00
2022-11-16T06:31:50.002Z,6.83
2022-11-16T06:36:54.136Z,7.03
2022-11-16T06:41:56.864Z,6.98
2022-11-16T06:46:59.591Z,6.88
2022-11-16T06:52:03.745Z,6.87
2022-11-16T06:57:06.466Z,6.86
2022-11-16T07:02:11.399Z,6.89
2022-11-16T07:07:16.504Z,6.98
2022-11-16T07:12:19.297Z,6.87
2022-11-16T07:17:22.111Z,6.89
2022-11-16T07:22:26.296Z,6.87
2022-11-16T07:27:29.044Z,6.92
2022-11-16T07:32:31.974Z,6.91
2022-11-16T07:37:36.075Z,6.90
2022-11-16T07:42:38.797Z,6.90
2022-11-16T07:47:41.676Z,6.95
2022-11-16T07:52:46.519Z,6.99
2022-11-16T07:57:53.254Z,6.92
2022-11-16T08:02:57.750Z,7.04
2022-11-16T08:08:01.894Z,7.04
2022-11-16T08:13:05.465Z,6.91
2022-11-16T08:18:08.581Z,7.02
2022-11-16T08:23:12.869Z,7.02
2022-11-16T08:28:15.615Z,6.90
2022-11-16T08:33:19.513Z,7.06
2022-11-16T08:38:23.661Z,7.06
2022-11-16T08:43:27.017Z,7.07
2022-11-16T08:48:29.772Z,7.13
2022-11-16T08:53:33.856Z,7.10
2022-11-16T08:58:37.100Z,7.17
2022-11-16T09:03:39.880Z,7.19
2022-11-16T09:08:45.208Z,7.34
2022-11-16T09:13:49.490Z,7.27
2022-11-16T09:18:53.285Z,7.31
2022-11-16T09:23:58.629Z,7.31
2022-11-16T09:29:04.336Z,7.37
2022-11-16T09:34:07.841Z,7.43
2022-11-16T09:39:30.151Z,7.47
2022-11-16T09:44:59.782Z,7.42
2022-11-16T09:50:05.429Z,7.57
2022-11-16T09:55:24.684Z,7.48
2022-11-16T10:00:30.133Z,7.59
2022-11-16T10:05:38.671Z,7.50
2022-11-16T10:10:50.874Z,7.55
2022-11-16T10:16:02.336Z,7.62
2022-11-16T10:21:17.070Z,7.57
2022-11-16T10:26:30.311Z,7.76
2022-11-16T10:31:51.518Z,7.85
2022-11-16T10:36:58.990Z,7.69
2022-11-16T10:42:07.892Z,7.53
2022-11-16T10:47:18.598Z,7.79
2022-11-16T10:52:21.343Z,7.73
2022-11-16T10:57:26.565Z,7.74
2022-11-16T11:02:37.701Z,7.72
2022-11-16T11:07:40.919Z,7.78
2022-11-16T11:13:03.307Z,7.65
2022-11-16T11:18:19.027Z,7.75
2022-11-16T11:23:24.992Z,7.76
2022-11-16T11:28:31.964Z,7.81
2022-11-16T11:33:38.765Z,7.86
2022-11-16T11:38:58.422Z,7.78
2022-11-16T11:44:04.317Z,7.73
2022-11-16T11:49:14.034Z,7.77
2022-11-16T11:54:21.577Z,7.83
2022-11-16T11:59:27.484Z,7.80
2022-11-16T12:04:53.943Z,7.77
2022-11-16T12:10:04.244Z,7.78
2022-11-16T12:15:32.762Z,7.83
2022-11-16T12:20:43.514Z,7.79
2022-11-16T12:25:53.463Z,7.77
2022-11-16T12:31:12.792Z,7.80
2022-11-16T12:36:25.908Z,7.81
2022-11-16T12:41:58.564Z,7.80
2022-11-16T12:47:13.410Z,7.82
2022-11-16T12:52:35.654Z,7.85
2022-11-16T12:57:49.005Z,7.91
2022-11-16T13:03:06.166Z,7.91
2022-11-16T13:08:17.257Z,7.84
2022-11-16T13:13:41.138Z,7.78
2022-11-16T13:18:45.705Z,7.88
2022-11-16T13:24:01.125Z,7.79
2022-11-16T13:29:16.423Z,7.74
2022-11-16T13:34:25.582Z,7.73
2022-11-16T13:40:01.699Z,7.78
2022-11-16T13:45:09.773Z,7.69
2022-11-16T13:50:20.715Z,7.67
2022-11-16T13:55:30.210Z,7.63
2022-11-16T14:00:35.704Z,7.65
2022-11-16T14:05:41.651Z,7.59
2022-11-16T14:11:03.276Z,7.53
2022-11-16T14:16:48.524Z,7.48
2022-11-16T14:21:59.933Z,7.46
2022-11-16T14:27:15.992Z,7.44
2022-11-16T14:32:22.949Z,7.42
2022-11-16T14:37:34.226Z,7.36
2022-11-16T14:43:09.454Z,7.32
2022-11-16T14:48:16.458Z,7.37
2022-11-16T14:53:21.195Z,7.28
2022-11-16T14:58:24.564Z,7.25
2022-11-16T15:03:31.016Z,7.27
2022-11-16T15:08:39.664Z,7.18
2022-11-16T15:13:46.752Z,7.18
2022-11-16T15:19:00.548Z,7.16
2022-11-16T15:29:27.764Z,7.24
2022-11-16T15:34:32.099Z,7.20
2022-11-16T15:39:37.514Z,7.14
2022-11-16T15:44:40.431Z,7.21
2022-11-16T15:49:44.662Z,7.08
2022-11-16T15:55:07.501Z,7.10
2022-11-16T16:00:23.223Z,7.10
2022-11-16T16:05:38.091Z,7.03
2022-11-16T16:10:42.185Z,6.95
2022-11-16T16:15:45.187Z,6.94
2022-11-16T16:20:49.645Z,6.92
2022-11-16T16:25:53.918Z,6.92
2022-11-16T16:30:56.653Z,6.95
2022-11-16T16:35:59.410Z,6.94
2022-11-16T16:41:05.674Z,7.06
2022-11-16T16:46:08.621Z,6.95
2022-11-16T16:51:13.711Z,6.97
2022-11-16T16:56:19.894Z,6.98
2022-11-16T17:01:22.734Z,6.96
2022-11-16T17:06:25.691Z,6.91
2022-11-16T17:11:30.068Z,6.89
2022-11-16T17:16:33.649Z,6.86
2022-11-16T17:21:36.470Z,6.86
2022-11-16T17:26:41.862Z,6.82
2022-11-16T17:31:45.003Z,6.76
2022-11-16T17:36:47.906Z,6.71
2022-11-16T17:41:52.447Z,6.74
2022-11-16T17:46:55.225Z,6.68
2022-11-16T17:51:57.992Z,6.64
2022-11-16T17:57:02.150Z,6.65
2022-11-16T18:02:04.906Z,6.59
2022-11-16T18:07:07.698Z,6.47
2022-11-16T18:12:11.844Z,6.45
2022-11-16T18:17:14.932Z,6.32
2022-11-16T18:22:17.656Z,6.16
2022-11-16T18:27:21.780Z,6.11
2022-11-16T18:32:24.537Z,6.05
2022-11-16T18:37:27.280Z,6.01
2022-11-16T18:42:31.425Z,5.99
2022-11-16T18:47:34.187Z,5.86
2022-11-16T18:52:36.989Z,5.75
2022-11-16T18:57:41.075Z,5.68
2022-11-16T19:02:43.815Z,5.59
2022-11-16T19:07:46.553Z,5.50
2022-11-16T19:12:50.675Z,5.57
2022-11-16T19:18:19.978Z,5.69
2022-11-16T19:23:16.153Z,5.48
2022-11-16T19:28:20.241Z,5.37
2022-11-16T19:33:22.962Z,5.38
2022-11-16T19:38:25.772Z,5.27
2022-11-16T19:43:29.973Z,5.23
2022-11-16T19:48:33.151Z,5.23
2022-11-16T19:53:36.913Z,5.21
2022-11-16T19:58:41.908Z,5.40
2022-11-16T20:03:45.143Z,5.35
2022-11-16T20:08:49.300Z,5.40
2022-11-16T20:13:54.763Z,5.47
2022-11-16T20:18:58.127Z,5.45
2022-11-16T20:24:06.355Z,5.49
2022-11-16T20:29:12.540Z,5.45
2022-11-16T20:34:17.473Z,5.53
2022-11-16T20:39:21.602Z,5.50
2022-11-16T20:44:25.718Z,5.39
2022-11-16T20:49:28.430Z,5.52
2022-11-16T20:54:31.210Z,5.45
2022-11-16T20:59:35.493Z,5.46
2022-11-16T21:04:38.330Z,5.45
2022-11-16T21:09:54.973Z,5.36
2022-11-16T21:14:59.389Z,5.24
2022-11-16T21:20:25.841Z,5.23
2022-11-16T21:25:25.224Z,5.18
2022-11-16T21:30:29.542Z,5.04
2022-11-16T21:35:32.423Z,4.93
2022-11-16T21:40:35.467Z,4.82
2022-11-16T21:45:39.883Z,4.72
2022-11-16T21:50:42.994Z,4.63
2022-11-16T21:55:50.816Z,4.53
2022-11-16T22:00:57.339Z,4.42
2022-11-16T22:06:19.411Z,4.34
2022-11-16T22:11:22.941Z,4.26
2022-11-16T22:16:27.140Z,4.18
2022-11-16T22:21:30.050Z,4.08
2022-11-16T22:26:32.993Z,3.94
2022-11-16T22:31:37.405Z,3.82
2022-11-16T22:36:40.401Z,3.70
2022-11-16T22:41:43.458Z,3.60
2022-11-16T22:46:49.512Z,3.50
2022-11-16T22:51:52.619Z,3.43
2022-11-16T22:56:55.614Z,3.30
2022-11-16T23:02:01.057Z,3.22
2022-11-16T23:07:03.897Z,3.14
2022-11-16T23:12:25.055Z,3.09
2022-11-16T23:17:29.397Z,3.05
2022-11-16T23:22:49.857Z,2.90
2022-11-16T23:27:56.351Z,2.82
2022-11-16T23:33:00.769Z,2.74
2022-11-16T23:38:05.926Z,2.66
2022-11-16T23:43:29.248Z,2.63
2022-11-16T23:48:33.692Z,2.64
2022-11-16T23:53:39.693Z,2.62
2022-11-16T23:58:42.587Z,2.63
